sensor_id;sensor_type;location;lat;lon;timestamp;temperature;humidity
20481;DHT22;10399;50.754;3.366;2023-02-10T00:00:18;6.50;99.90
20481;DHT22;10399;50.754;3.366;2023-02-10T00:02:45;6.50;99.90
20481;DHT22;10399;50.754;3.366;2023-02-10T00:05:13;6.50;99.90
20481;DHT22;10399;50.754;3.366;2023-02-10T00:07:40;6.60;99.90
20481;DHT22;10399;50.754;3.366;2023-02-10T00:10:07;6.60;99.90
20481;DHT22;10399;50.754;3.366;2023-02-10T00:12:37;6.60;99.90
20481;DHT22;10399;50.754;3.366;2023-02-10T00:15:05;6.50;99.90
20481;DHT22;10399;50.754;3.366;2023-02-10T00:17:32;6.50;99.90
20481;DHT22;10399;50.754;3.366;2023-02-10T00:19:59;6.50;99.90
20481;DHT22;10399;50.754;3.366;2023-02-10T00:22:26;6.70;99.90
20481;DHT22;10399;50.754;3.366;2023-02-10T00:24:53;6.60;99.90
20481;DHT22;10399;50.754;3.366;2023-02-10T00:27:20;6.50;99.90
20481;DHT22;10399;50.754;3.366;2023-02-10T00:29:51;6.50;99.90
20481;DHT22;10399;50.754;3.366;2023-02-10T00:32:18;6.70;99.90
20481;DHT22;10399;50.754;3.366;2023-02-10T00:34:45;6.70;99.90
20481;DHT22;10399;50.754;3.366;2023-02-10T00:37:12;6.50;99.90
20481;DHT22;10399;50.754;3.366;2023-02-10T00:39:39;6.50;99.90
20481;DHT22;10399;50.754;3.366;2023-02-10T00:42:06;6.40;99.90
20481;DHT22;10399;50.754;3.366;2023-02-10T00:44:33;6.60;99.90
20481;DHT22;10399;50.754;3.366;2023-02-10T00:47:00;6.50;99.90
20481;DHT22;10399;50.754;3.366;2023-02-10T00:49:27;6.60;99.90
20481;DHT22;10399;50.754;3.366;2023-02-10T00:51:54;6.50;99.90
20481;DHT22;10399;50.754;3.366;2023-02-10T00:54:21;6.70;99.90
20481;DHT22;10399;50.754;3.366;2023-02-10T00:56:48;6.70;99.90
20481;DHT22;10399;50.754;3.366;2023-02-10T00:59:15;6.50;99.90
20481;DHT22;10399;50.754;3.366;2023-02-10T01:01:42;6.60;99.90
20481;DHT22;10399;50.754;3.366;2023-02-10T01:04:09;6.30;99.90
20481;DHT22;10399;50.754;3.366;2023-02-10T01:06:37;6.50;99.90
20481;DHT22;10399;50.754;3.366;2023-02-10T01:09:04;6.60;99.90
20481;DHT22;10399;50.754;3.366;2023-02-10T01:11:31;6.60;99.90
20481;DHT22;10399;50.754;3.366;2023-02-10T01:13:58;6.60;99.90
20481;DHT22;10399;50.754;3.366;2023-02-10T01:16:25;6.40;99.90
20481;DHT22;10399;50.754;3.366;2023-02-10T01:18:52;6.40;99.90
20481;DHT22;10399;50.754;3.366;2023-02-10T01:21:20;6.30;99.90
20481;DHT22;10399;50.754;3.366;2023-02-10T01:23:48;6.30;99.90
20481;DHT22;10399;50.754;3.366;2023-02-10T01:26:15;6.30;99.90
20481;DHT22;10399;50.754;3.366;2023-02-10T01:28:42;6.20;99.90
20481;DHT22;10399;50.754;3.366;2023-02-10T01:31:12;6.30;99.90
20481;DHT22;10399;50.754;3.366;2023-02-10T01:33:39;6.40;99.90
20481;DHT22;10399;50.754;3.366;2023-02-10T01:36:17;6.40;99.90
20481;DHT22;10399;50.754;3.366;2023-02-10T01:38:44;6.10;99.90
20481;DHT22;10399;50.754;3.366;2023-02-10T01:41:18;6.10;99.90
20481;DHT22;10399;50.754;3.366;2023-02-10T01:43:59;6.30;99.90
20481;DHT22;10399;50.754;3.366;2023-02-10T01:46:28;6.40;99.90
20481;DHT22;10399;50.754;3.366;2023-02-10T01:48:58;6.20;99.90
20481;DHT22;10399;50.754;3.366;2023-02-10T01:51:36;6.30;99.90
20481;DHT22;10399;50.754;3.366;2023-02-10T01:54:05;6.30;99.90
20481;DHT22;10399;50.754;3.366;2023-02-10T01:56:35;6.30;99.90
20481;DHT22;10399;50.754;3.366;2023-02-10T01:59:03;6.40;99.90
20481;DHT22;10399;50.754;3.366;2023-02-10T02:01:30;6.30;99.90
20481;DHT22;10399;50.754;3.366;2023-02-10T02:04:00;6.20;99.90
20481;DHT22;10399;50.754;3.366;2023-02-10T02:06:28;6.20;99.90
20481;DHT22;10399;50.754;3.366;2023-02-10T02:08:55;6.00;99.90
20481;DHT22;10399;50.754;3.366;2023-02-10T02:14:13;5.70;99.90
20481;DHT22;10399;50.754;3.366;2023-02-10T02:17:05;5.60;99.90
20481;DHT22;10399;50.754;3.366;2023-02-10T02:33:54;5.10;99.90
20481;DHT22;10399;50.754;3.366;2023-02-10T02:36:37;5.10;99.90
20481;DHT22;10399;50.754;3.366;2023-02-10T02:39:05;4.90;99.90
20481;DHT22;10399;50.754;3.366;2023-02-10T02:41:33;4.80;99.90
20481;DHT22;10399;50.754;3.366;2023-02-10T02:44:02;4.70;99.90
20481;DHT22;10399;50.754;3.366;2023-02-10T02:46:36;4.70;99.90
20481;DHT22;10399;50.754;3.366;2023-02-10T02:52:02;4.70;99.90
20481;DHT22;10399;50.754;3.366;2023-02-10T02:54:48;4.90;99.90
20481;DHT22;10399;50.754;3.366;2023-02-10T03:00:21;4.80;99.90
20481;DHT22;10399;50.754;3.366;2023-02-10T03:02:50;4.70;99.90
20481;DHT22;10399;50.754;3.366;2023-02-10T03:05:23;4.70;99.90
20481;DHT22;10399;50.754;3.366;2023-02-10T03:07:55;4.90;99.90
20481;DHT22;10399;50.754;3.366;2023-02-10T03:10:23;5.30;99.90
20481;DHT22;10399;50.754;3.366;2023-02-10T03:12:50;5.40;99.90
20481;DHT22;10399;50.754;3.366;2023-02-10T03:15:19;5.30;99.90
20481;DHT22;10399;50.754;3.366;2023-02-10T03:17:47;5.10;99.90
20481;DHT22;10399;50.754;3.366;2023-02-10T03:20:14;5.10;99.90
20481;DHT22;10399;50.754;3.366;2023-02-10T03:22:42;5.20;99.90
20481;DHT22;10399;50.754;3.366;2023-02-10T03:25:09;5.30;99.90
20481;DHT22;10399;50.754;3.366;2023-02-10T03:27:36;5.30;99.90
20481;DHT22;10399;50.754;3.366;2023-02-10T03:30:03;5.20;99.90
20481;DHT22;10399;50.754;3.366;2023-02-10T03:32:31;5.30;99.90
20481;DHT22;10399;50.754;3.366;2023-02-10T03:34:58;5.20;99.90
20481;DHT22;10399;50.754;3.366;2023-02-10T03:37:25;5.10;99.90
20481;DHT22;10399;50.754;3.366;2023-02-10T03:39:52;5.10;99.90
20481;DHT22;10399;50.754;3.366;2023-02-10T03:42:18;5.00;99.90
20481;DHT22;10399;50.754;3.366;2023-02-10T03:44:45;4.90;99.90
20481;DHT22;10399;50.754;3.366;2023-02-10T03:47:12;4.90;99.90
20481;DHT22;10399;50.754;3.366;2023-02-10T03:49:39;4.80;99.90
20481;DHT22;10399;50.754;3.366;2023-02-10T03:52:06;4.90;99.90
20481;DHT22;10399;50.754;3.366;2023-02-10T03:54:33;5.00;99.90
20481;DHT22;10399;50.754;3.366;2023-02-10T03:57:00;5.00;99.90
20481;DHT22;10399;50.754;3.366;2023-02-10T03:59:27;5.00;99.90
20481;DHT22;10399;50.754;3.366;2023-02-10T04:01:54;5.00;99.90
20481;DHT22;10399;50.754;3.366;2023-02-10T04:04:21;5.10;99.90
20481;DHT22;10399;50.754;3.366;2023-02-10T04:06:49;5.10;99.90
20481;DHT22;10399;50.754;3.366;2023-02-10T04:09:16;5.10;99.90
20481;DHT22;10399;50.754;3.366;2023-02-10T04:11:42;5.20;99.90
20481;DHT22;10399;50.754;3.366;2023-02-10T04:14:09;5.20;99.90
20481;DHT22;10399;50.754;3.366;2023-02-10T04:16:36;5.00;99.90
20481;DHT22;10399;50.754;3.366;2023-02-10T04:19:05;5.30;99.90
20481;DHT22;10399;50.754;3.366;2023-02-10T04:21:32;5.30;99.90
20481;DHT22;10399;50.754;3.366;2023-02-10T04:24:00;5.30;99.90
20481;DHT22;10399;50.754;3.366;2023-02-10T04:26:27;5.50;99.90
20481;DHT22;10399;50.754;3.366;2023-02-10T04:28:54;5.50;99.90
20481;DHT22;10399;50.754;3.366;2023-02-10T04:31:20;5.40;99.90
20481;DHT22;10399;50.754;3.366;2023-02-10T04:33:48;5.40;99.90
20481;DHT22;10399;50.754;3.366;2023-02-10T04:36:14;5.60;99.90
20481;DHT22;10399;50.754;3.366;2023-02-10T04:38:41;5.60;99.90
20481;DHT22;10399;50.754;3.366;2023-02-10T04:41:08;5.60;99.90
20481;DHT22;10399;50.754;3.366;2023-02-10T04:43:35;5.70;99.90
20481;DHT22;10399;50.754;3.366;2023-02-10T04:46:02;5.70;99.90
20481;DHT22;10399;50.754;3.366;2023-02-10T04:48:31;5.80;99.90
20481;DHT22;10399;50.754;3.366;2023-02-10T04:50:58;5.80;99.90
20481;DHT22;10399;50.754;3.366;2023-02-10T04:53:25;5.90;99.90
20481;DHT22;10399;50.754;3.366;2023-02-10T04:55:52;5.90;99.90
20481;DHT22;10399;50.754;3.366;2023-02-10T04:58:19;5.60;99.90
20481;DHT22;10399;50.754;3.366;2023-02-10T05:00:46;5.50;99.90
20481;DHT22;10399;50.754;3.366;2023-02-10T05:03:13;5.40;99.90
20481;DHT22;10399;50.754;3.366;2023-02-10T05:05:41;5.30;99.90
20481;DHT22;10399;50.754;3.366;2023-02-10T05:08:08;5.40;99.90
20481;DHT22;10399;50.754;3.366;2023-02-10T05:10:34;5.50;99.90
20481;DHT22;10399;50.754;3.366;2023-02-10T05:13:01;5.50;99.90
20481;DHT22;10399;50.754;3.366;2023-02-10T05:15:29;5.50;99.90
20481;DHT22;10399;50.754;3.366;2023-02-10T05:17:56;5.50;99.90
20481;DHT22;10399;50.754;3.366;2023-02-10T05:20:23;5.40;99.90
20481;DHT22;10399;50.754;3.366;2023-02-10T05:22:50;5.40;99.90
20481;DHT22;10399;50.754;3.366;2023-02-10T05:25:17;5.40;99.90
20481;DHT22;10399;50.754;3.366;2023-02-10T05:27:44;5.50;99.90
20481;DHT22;10399;50.754;3.366;2023-02-10T05:30:11;5.50;99.90
20481;DHT22;10399;50.754;3.366;2023-02-10T05:32:45;5.60;99.90
20481;DHT22;10399;50.754;3.366;2023-02-10T05:35:12;5.60;99.90
20481;DHT22;10399;50.754;3.366;2023-02-10T05:37:39;5.50;99.90
20481;DHT22;10399;50.754;3.366;2023-02-10T05:40:06;5.40;99.90
20481;DHT22;10399;50.754;3.366;2023-02-10T05:42:33;5.50;99.90
20481;DHT22;10399;50.754;3.366;2023-02-10T05:45:00;5.30;99.90
20481;DHT22;10399;50.754;3.366;2023-02-10T05:47:34;5.40;99.90
20481;DHT22;10399;50.754;3.366;2023-02-10T05:50:04;5.30;99.90
20481;DHT22;10399;50.754;3.366;2023-02-10T05:52:34;5.50;99.90
20481;DHT22;10399;50.754;3.366;2023-02-10T05:55:02;5.50;99.90
20481;DHT22;10399;50.754;3.366;2023-02-10T05:57:29;5.30;99.90
20481;DHT22;10399;50.754;3.366;2023-02-10T05:59:56;5.40;99.90
20481;DHT22;10399;50.754;3.366;2023-02-10T06:02:22;5.50;99.90
20481;DHT22;10399;50.754;3.366;2023-02-10T06:04:50;5.40;99.90
20481;DHT22;10399;50.754;3.366;2023-02-10T06:07:17;5.40;99.90
20481;DHT22;10399;50.754;3.366;2023-02-10T06:09:44;5.30;99.90
20481;DHT22;10399;50.754;3.366;2023-02-10T06:12:13;5.20;99.90
20481;DHT22;10399;50.754;3.366;2023-02-10T06:14:40;5.10;99.90
20481;DHT22;10399;50.754;3.366;2023-02-10T06:17:07;5.20;99.90
20481;DHT22;10399;50.754;3.366;2023-02-10T06:19:38;5.30;99.90
20481;DHT22;10399;50.754;3.366;2023-02-10T06:22:07;5.30;99.90
20481;DHT22;10399;50.754;3.366;2023-02-10T06:24:34;5.50;99.90
20481;DHT22;10399;50.754;3.366;2023-02-10T06:27:01;5.30;99.90
20481;DHT22;10399;50.754;3.366;2023-02-10T06:29:28;5.30;99.90
20481;DHT22;10399;50.754;3.366;2023-02-10T06:31:55;5.30;99.90
20481;DHT22;10399;50.754;3.366;2023-02-10T06:34:22;5.40;99.90
20481;DHT22;10399;50.754;3.366;2023-02-10T06:36:49;5.30;99.90
20481;DHT22;10399;50.754;3.366;2023-02-10T06:39:16;5.50;99.90
20481;DHT22;10399;50.754;3.366;2023-02-10T06:41:43;5.50;99.90
20481;DHT22;10399;50.754;3.366;2023-02-10T06:44:09;5.30;99.90
20481;DHT22;10399;50.754;3.366;2023-02-10T06:46:37;5.30;99.90
20481;DHT22;10399;50.754;3.366;2023-02-10T06:49:04;5.20;99.90
20481;DHT22;10399;50.754;3.366;2023-02-10T06:51:31;5.10;99.90
20481;DHT22;10399;50.754;3.366;2023-02-10T06:53:58;5.00;99.90
20481;DHT22;10399;50.754;3.366;2023-02-10T06:56:25;5.20;99.90
20481;DHT22;10399;50.754;3.366;2023-02-10T06:58:52;5.30;99.90
20481;DHT22;10399;50.754;3.366;2023-02-10T07:01:19;5.40;99.90
20481;DHT22;10399;50.754;3.366;2023-02-10T07:03:46;5.20;99.90
20481;DHT22;10399;50.754;3.366;2023-02-10T07:06:13;5.10;99.90
20481;DHT22;10399;50.754;3.366;2023-02-10T07:08:40;5.20;99.90
20481;DHT22;10399;50.754;3.366;2023-02-10T07:11:07;5.20;99.90
20481;DHT22;10399;50.754;3.366;2023-02-10T07:13:34;5.40;99.90
20481;DHT22;10399;50.754;3.366;2023-02-10T07:16:01;5.30;99.90
20481;DHT22;10399;50.754;3.366;2023-02-10T07:18:28;5.20;99.90
20481;DHT22;10399;50.754;3.366;2023-02-10T07:20:56;5.30;99.90
20481;DHT22;10399;50.754;3.366;2023-02-10T07:23:23;5.20;99.90
20481;DHT22;10399;50.754;3.366;2023-02-10T07:26:04;5.20;99.90
20481;DHT22;10399;50.754;3.366;2023-02-10T07:28:32;5.10;99.90
20481;DHT22;10399;50.754;3.366;2023-02-10T07:31:00;5.10;99.90
20481;DHT22;10399;50.754;3.366;2023-02-10T07:33:27;5.20;99.90
20481;DHT22;10399;50.754;3.366;2023-02-10T07:35:58;5.20;99.90
20481;DHT22;10399;50.754;3.366;2023-02-10T07:38:26;5.20;99.90
20481;DHT22;10399;50.754;3.366;2023-02-10T07:40:53;5.20;99.90
20481;DHT22;10399;50.754;3.366;2023-02-10T07:43:19;5.30;99.90
20481;DHT22;10399;50.754;3.366;2023-02-10T07:45:46;5.50;99.90
20481;DHT22;10399;50.754;3.366;2023-02-10T07:48:14;5.60;99.90
20481;DHT22;10399;50.754;3.366;2023-02-10T07:50:41;5.70;99.90
20481;DHT22;10399;50.754;3.366;2023-02-10T07:53:08;5.60;99.90
20481;DHT22;10399;50.754;3.366;2023-02-10T07:55:37;5.60;99.90
20481;DHT22;10399;50.754;3.366;2023-02-10T07:58:05;5.60;99.90
20481;DHT22;10399;50.754;3.366;2023-02-10T08:00:33;5.80;99.90
20481;DHT22;10399;50.754;3.366;2023-02-10T08:03:00;5.60;99.90
20481;DHT22;10399;50.754;3.366;2023-02-10T08:05:27;5.70;99.90
20481;DHT22;10399;50.754;3.366;2023-02-10T08:07:55;5.80;99.90
20481;DHT22;10399;50.754;3.366;2023-02-10T08:10:22;5.80;99.90
20481;DHT22;10399;50.754;3.366;2023-02-10T08:12:49;5.80;99.90
20481;DHT22;10399;50.754;3.366;2023-02-10T08:15:16;5.90;99.90
20481;DHT22;10399;50.754;3.366;2023-02-10T08:17:44;5.80;99.90
20481;DHT22;10399;50.754;3.366;2023-02-10T08:20:11;5.90;99.90
20481;DHT22;10399;50.754;3.366;2023-02-10T08:22:38;6.00;99.90
20481;DHT22;10399;50.754;3.366;2023-02-10T08:25:05;6.20;99.90
20481;DHT22;10399;50.754;3.366;2023-02-10T08:27:32;6.10;99.90
20481;DHT22;10399;50.754;3.366;2023-02-10T08:29:59;6.10;99.90
20481;DHT22;10399;50.754;3.366;2023-02-10T08:32:26;6.30;99.90
20481;DHT22;10399;50.754;3.366;2023-02-10T08:34:53;6.30;99.90
20481;DHT22;10399;50.754;3.366;2023-02-10T08:37:20;6.30;99.90
20481;DHT22;10399;50.754;3.366;2023-02-10T08:39:48;6.50;99.90
20481;DHT22;10399;50.754;3.366;2023-02-10T08:42:14;6.60;99.90
20481;DHT22;10399;50.754;3.366;2023-02-10T08:44:41;6.60;99.90
20481;DHT22;10399;50.754;3.366;2023-02-10T08:47:09;6.50;99.90
20481;DHT22;10399;50.754;3.366;2023-02-10T08:49:37;6.60;99.90
20481;DHT22;10399;50.754;3.366;2023-02-10T08:52:04;6.70;99.90
20481;DHT22;10399;50.754;3.366;2023-02-10T08:54:31;6.60;99.90
20481;DHT22;10399;50.754;3.366;2023-02-10T08:56:59;6.60;99.90
20481;DHT22;10399;50.754;3.366;2023-02-10T08:59:26;6.60;99.90
20481;DHT22;10399;50.754;3.366;2023-02-10T09:01:53;6.80;99.90
20481;DHT22;10399;50.754;3.366;2023-02-10T09:04:20;6.90;99.90
20481;DHT22;10399;50.754;3.366;2023-02-10T09:06:48;6.80;99.90
20481;DHT22;10399;50.754;3.366;2023-02-10T09:09:19;6.80;99.90
20481;DHT22;10399;50.754;3.366;2023-02-10T09:11:48;6.80;99.90
20481;DHT22;10399;50.754;3.366;2023-02-10T09:14:15;6.70;99.90
20481;DHT22;10399;50.754;3.366;2023-02-10T09:16:43;6.90;99.90
20481;DHT22;10399;50.754;3.366;2023-02-10T09:19:10;7.00;99.90
20481;DHT22;10399;50.754;3.366;2023-02-10T09:21:37;6.80;99.90
20481;DHT22;10399;50.754;3.366;2023-02-10T09:24:13;6.70;99.90
20481;DHT22;10399;50.754;3.366;2023-02-10T09:26:40;6.70;99.90
20481;DHT22;10399;50.754;3.366;2023-02-10T09:29:07;6.80;99.90
20481;DHT22;10399;50.754;3.366;2023-02-10T09:31:35;6.80;99.90
20481;DHT22;10399;50.754;3.366;2023-02-10T09:34:02;6.80;99.90
20481;DHT22;10399;50.754;3.366;2023-02-10T09:36:29;6.90;99.90
20481;DHT22;10399;50.754;3.366;2023-02-10T09:38:56;6.90;99.90
20481;DHT22;10399;50.754;3.366;2023-02-10T09:44:16;6.90;99.90
20481;DHT22;10399;50.754;3.366;2023-02-10T09:55:16;6.70;99.90
20481;DHT22;10399;50.754;3.366;2023-02-10T09:57:51;6.80;99.90
20481;DHT22;10399;50.754;3.366;2023-02-10T10:02:52;7.30;99.90
20481;DHT22;10399;50.754;3.366;2023-02-10T10:08:35;7.30;99.90
20481;DHT22;10399;50.754;3.366;2023-02-10T10:11:37;7.30;99.90
20481;DHT22;10399;50.754;3.366;2023-02-10T10:17:05;7.40;99.90
20481;DHT22;10399;50.754;3.366;2023-02-10T10:25:36;7.20;99.90
20481;DHT22;10399;50.754;3.366;2023-02-10T10:28:25;7.20;99.90
20481;DHT22;10399;50.754;3.366;2023-02-10T10:33:50;7.50;99.90
20481;DHT22;10399;50.754;3.366;2023-02-10T10:36:20;7.70;99.90
20481;DHT22;10399;50.754;3.366;2023-02-10T10:38:54;7.70;99.90
20481;DHT22;10399;50.754;3.366;2023-02-10T10:41:25;7.70;99.90
20481;DHT22;10399;50.754;3.366;2023-02-10T10:43:55;7.90;99.90
20481;DHT22;10399;50.754;3.366;2023-02-10T10:49:09;7.70;99.90
20481;DHT22;10399;50.754;3.366;2023-02-10T10:51:36;7.80;99.90
20481;DHT22;10399;50.754;3.366;2023-02-10T10:54:06;7.90;99.90
20481;DHT22;10399;50.754;3.366;2023-02-10T10:59:34;8.10;99.90
20481;DHT22;10399;50.754;3.366;2023-02-10T11:02:18;8.00;99.90
20481;DHT22;10399;50.754;3.366;2023-02-10T11:04:58;8.10;99.90
20481;DHT22;10399;50.754;3.366;2023-02-10T11:07:25;8.20;99.90
20481;DHT22;10399;50.754;3.366;2023-02-10T11:09:54;8.40;99.90
20481;DHT22;10399;50.754;3.366;2023-02-10T11:12:24;8.40;99.90
20481;DHT22;10399;50.754;3.366;2023-02-10T11:14:53;8.50;99.90
20481;DHT22;10399;50.754;3.366;2023-02-10T11:17:38;8.50;99.90
20481;DHT22;10399;50.754;3.366;2023-02-10T11:22:38;8.70;99.90
20481;DHT22;10399;50.754;3.366;2023-02-10T11:28:00;9.00;99.90
20481;DHT22;10399;50.754;3.366;2023-02-10T11:30:33;8.80;99.90
20481;DHT22;10399;50.754;3.366;2023-02-10T11:33:02;8.90;99.90
20481;DHT22;10399;50.754;3.366;2023-02-10T11:35:31;8.90;99.90
20481;DHT22;10399;50.754;3.366;2023-02-10T11:38:05;9.00;99.90
20481;DHT22;10399;50.754;3.366;2023-02-10T11:43:16;9.00;99.90
20481;DHT22;10399;50.754;3.366;2023-02-10T11:46:00;9.10;99.90
20481;DHT22;10399;50.754;3.366;2023-02-10T11:48:29;9.00;99.90
20481;DHT22;10399;50.754;3.366;2023-02-10T11:51:12;9.00;99.90
20481;DHT22;10399;50.754;3.366;2023-02-10T11:53:40;9.00;99.90
20481;DHT22;10399;50.754;3.366;2023-02-10T11:56:30;9.00;99.90
20481;DHT22;10399;50.754;3.366;2023-02-10T11:59:52;9.00;99.90
20481;DHT22;10399;50.754;3.366;2023-02-10T12:05:06;9.20;99.90
20481;DHT22;10399;50.754;3.366;2023-02-10T12:07:52;9.30;99.90
20481;DHT22;10399;50.754;3.366;2023-02-10T12:10:47;9.20;99.90
20481;DHT22;10399;50.754;3.366;2023-02-10T12:14:02;9.00;99.90
20481;DHT22;10399;50.754;3.366;2023-02-10T12:22:29;9.10;99.90
20481;DHT22;10399;50.754;3.366;2023-02-10T12:30:11;9.80;99.90
20481;DHT22;10399;50.754;3.366;2023-02-10T12:35:40;10.30;99.90
20481;DHT22;10399;50.754;3.366;2023-02-10T12:47:24;10.90;99.90
20481;DHT22;10399;50.754;3.366;2023-02-10T12:52:30;11.00;99.90
20481;DHT22;10399;50.754;3.366;2023-02-10T12:57:47;10.90;99.90
20481;DHT22;10399;50.754;3.366;2023-02-10T13:00:36;10.80;99.90
20481;DHT22;10399;50.754;3.366;2023-02-10T13:03:47;10.80;99.90
20481;DHT22;10399;50.754;3.366;2023-02-10T13:06:25;11.20;99.90
20481;DHT22;10399;50.754;3.366;2023-02-10T13:09:03;11.50;99.90
20481;DHT22;10399;50.754;3.366;2023-02-10T13:11:45;11.80;99.90
20481;DHT22;10399;50.754;3.366;2023-02-10T13:14:22;12.10;99.90
20481;DHT22;10399;50.754;3.366;2023-02-10T13:16:54;12.30;99.90
20481;DHT22;10399;50.754;3.366;2023-02-10T13:19:27;12.40;99.90
20481;DHT22;10399;50.754;3.366;2023-02-10T13:24:54;12.30;99.90
20481;DHT22;10399;50.754;3.366;2023-02-10T13:30:20;12.20;99.90
20481;DHT22;10399;50.754;3.366;2023-02-10T13:35:37;12.10;99.90
20481;DHT22;10399;50.754;3.366;2023-02-10T13:38:09;12.00;99.90
20481;DHT22;10399;50.754;3.366;2023-02-10T13:40:49;12.10;99.90
20481;DHT22;10399;50.754;3.366;2023-02-10T13:45:51;12.60;99.90
20481;DHT22;10399;50.754;3.366;2023-02-10T13:48:23;12.70;99.90
20481;DHT22;10399;50.754;3.366;2023-02-10T13:51:07;12.40;99.90
20481;DHT22;10399;50.754;3.366;2023-02-10T14:01:34;12.30;99.90
20481;DHT22;10399;50.754;3.366;2023-02-10T14:04:03;12.30;99.90
20481;DHT22;10399;50.754;3.366;2023-02-10T14:06:40;12.10;99.90
20481;DHT22;10399;50.754;3.366;2023-02-10T14:11:59;12.00;99.90
20481;DHT22;10399;50.754;3.366;2023-02-10T14:14:33;11.80;99.90
20481;DHT22;10399;50.754;3.366;2023-02-10T14:19:41;11.70;99.90
20481;DHT22;10399;50.754;3.366;2023-02-10T14:22:31;11.60;99.90
20481;DHT22;10399;50.754;3.366;2023-02-10T14:25:18;11.70;99.90
20481;DHT22;10399;50.754;3.366;2023-02-10T14:27:49;11.50;99.90
20481;DHT22;10399;50.754;3.366;2023-02-10T14:30:44;11.40;99.90
20481;DHT22;10399;50.754;3.366;2023-02-10T14:33:36;11.40;99.90
20481;DHT22;10399;50.754;3.366;2023-02-10T14:36:17;11.80;99.90
20481;DHT22;10399;50.754;3.366;2023-02-10T14:38:52;12.20;99.90
20481;DHT22;10399;50.754;3.366;2023-02-10T14:41:21;12.30;99.90
20481;DHT22;10399;50.754;3.366;2023-02-10T14:43:49;12.20;99.90
20481;DHT22;10399;50.754;3.366;2023-02-10T14:46:23;12.30;99.90
20481;DHT22;10399;50.754;3.366;2023-02-10T14:49:07;12.30;99.90
20481;DHT22;10399;50.754;3.366;2023-02-10T14:51:40;12.20;99.90
20481;DHT22;10399;50.754;3.366;2023-02-10T14:54:21;12.20;99.90
20481;DHT22;10399;50.754;3.366;2023-02-10T14:59:30;11.90;99.90
20481;DHT22;10399;50.754;3.366;2023-02-10T15:02:07;11.70;99.90
20481;DHT22;10399;50.754;3.366;2023-02-10T15:04:49;11.50;99.90
20481;DHT22;10399;50.754;3.366;2023-02-10T15:07:29;11.70;99.90
20481;DHT22;10399;50.754;3.366;2023-02-10T15:10:01;11.70;99.90
20481;DHT22;10399;50.754;3.366;2023-02-10T15:12:30;11.70;99.90
20481;DHT22;10399;50.754;3.366;2023-02-10T15:15:45;11.60;99.90
20481;DHT22;10399;50.754;3.366;2023-02-10T15:18:29;11.70;99.90
20481;DHT22;10399;50.754;3.366;2023-02-10T15:21:00;11.80;99.90
20481;DHT22;10399;50.754;3.366;2023-02-10T15:23:27;11.90;99.90
20481;DHT22;10399;50.754;3.366;2023-02-10T15:28:41;11.80;99.90
20481;DHT22;10399;50.754;3.366;2023-02-10T15:31:26;11.90;99.90
20481;DHT22;10399;50.754;3.366;2023-02-10T15:33:55;11.80;99.90
20481;DHT22;10399;50.754;3.366;2023-02-10T15:41:45;12.10;99.90
20481;DHT22;10399;50.754;3.366;2023-02-10T15:44:24;12.00;99.90
20481;DHT22;10399;50.754;3.366;2023-02-10T15:47:41;12.00;99.90
20481;DHT22;10399;50.754;3.366;2023-02-10T15:50:02;11.80;99.90
20481;DHT22;10399;50.754;3.366;2023-02-10T15:52:32;11.80;99.90
20481;DHT22;10399;50.754;3.366;2023-02-10T15:55:03;11.90;99.90
20481;DHT22;10399;50.754;3.366;2023-02-10T15:57:30;11.70;99.90
20481;DHT22;10399;50.754;3.366;2023-02-10T15:59:57;11.60;99.90
20481;DHT22;10399;50.754;3.366;2023-02-10T16:02:24;11.60;99.90
20481;DHT22;10399;50.754;3.366;2023-02-10T16:04:55;11.50;99.90
20481;DHT22;10399;50.754;3.366;2023-02-10T16:07:24;11.40;99.90
20481;DHT22;10399;50.754;3.366;2023-02-10T16:09:54;11.30;99.90
20481;DHT22;10399;50.754;3.366;2023-02-10T16:12:23;11.40;99.90
20481;DHT22;10399;50.754;3.366;2023-02-10T16:14:50;11.30;99.90
20481;DHT22;10399;50.754;3.366;2023-02-10T16:17:29;11.40;99.90
20481;DHT22;10399;50.754;3.366;2023-02-10T16:19:59;11.50;99.90
20481;DHT22;10399;50.754;3.366;2023-02-10T16:22:26;11.40;99.90
20481;DHT22;10399;50.754;3.366;2023-02-10T16:24:53;11.30;99.90
20481;DHT22;10399;50.754;3.366;2023-02-10T16:27:20;11.40;99.90
20481;DHT22;10399;50.754;3.366;2023-02-10T16:29:47;11.20;99.90
20481;DHT22;10399;50.754;3.366;2023-02-10T16:32:14;11.10;99.90
20481;DHT22;10399;50.754;3.366;2023-02-10T16:34:41;11.10;99.90
20481;DHT22;10399;50.754;3.366;2023-02-10T16:37:18;11.00;99.90
20481;DHT22;10399;50.754;3.366;2023-02-10T16:39:45;10.80;99.90
20481;DHT22;10399;50.754;3.366;2023-02-10T16:42:12;10.90;99.90
20481;DHT22;10399;50.754;3.366;2023-02-10T16:44:39;10.80;99.90
20481;DHT22;10399;50.754;3.366;2023-02-10T16:47:06;10.60;99.90
20481;DHT22;10399;50.754;3.366;2023-02-10T16:49:33;10.70;99.90
20481;DHT22;10399;50.754;3.366;2023-02-10T16:52:00;10.80;99.90
20481;DHT22;10399;50.754;3.366;2023-02-10T16:54:27;10.90;99.90
20481;DHT22;10399;50.754;3.366;2023-02-10T16:56:54;10.80;99.90
20481;DHT22;10399;50.754;3.366;2023-02-10T16:59:21;10.70;99.90
20481;DHT22;10399;50.754;3.366;2023-02-10T17:01:49;10.80;99.90
20481;DHT22;10399;50.754;3.366;2023-02-10T17:04:15;10.70;99.90
20481;DHT22;10399;50.754;3.366;2023-02-10T17:06:45;10.70;99.90
20481;DHT22;10399;50.754;3.366;2023-02-10T17:09:20;10.90;99.90
20481;DHT22;10399;50.754;3.366;2023-02-10T17:11:47;10.80;99.90
20481;DHT22;10399;50.754;3.366;2023-02-10T17:14:15;10.60;99.90
20481;DHT22;10399;50.754;3.366;2023-02-10T17:16:44;10.60;99.90
20481;DHT22;10399;50.754;3.366;2023-02-10T17:19:14;10.60;99.90
20481;DHT22;10399;50.754;3.366;2023-02-10T17:21:41;10.70;99.90
20481;DHT22;10399;50.754;3.366;2023-02-10T17:24:07;10.70;99.90
20481;DHT22;10399;50.754;3.366;2023-02-10T17:26:35;10.70;99.90
20481;DHT22;10399;50.754;3.366;2023-02-10T17:29:02;10.60;99.90
20481;DHT22;10399;50.754;3.366;2023-02-10T17:31:29;10.50;99.90
20481;DHT22;10399;50.754;3.366;2023-02-10T17:33:59;10.50;99.90
20481;DHT22;10399;50.754;3.366;2023-02-10T17:36:27;10.40;99.90
20481;DHT22;10399;50.754;3.366;2023-02-10T17:38:54;10.40;99.90
20481;DHT22;10399;50.754;3.366;2023-02-10T17:41:27;10.20;99.90
20481;DHT22;10399;50.754;3.366;2023-02-10T17:43:56;10.00;99.90
20481;DHT22;10399;50.754;3.366;2023-02-10T17:46:24;10.10;99.90
20481;DHT22;10399;50.754;3.366;2023-02-10T17:48:52;10.10;99.90
20481;DHT22;10399;50.754;3.366;2023-02-10T17:51:21;10.10;99.90
20481;DHT22;10399;50.754;3.366;2023-02-10T17:53:50;10.10;99.90
20481;DHT22;10399;50.754;3.366;2023-02-10T17:56:19;10.30;99.90
20481;DHT22;10399;50.754;3.366;2023-02-10T17:58:47;10.30;99.90
20481;DHT22;10399;50.754;3.366;2023-02-10T18:01:25;10.30;99.90
20481;DHT22;10399;50.754;3.366;2023-02-10T18:03:54;10.20;99.90
20481;DHT22;10399;50.754;3.366;2023-02-10T18:06:21;10.10;99.90
20481;DHT22;10399;50.754;3.366;2023-02-10T18:08:48;10.10;99.90
20481;DHT22;10399;50.754;3.366;2023-02-10T18:11:16;10.00;99.90
20481;DHT22;10399;50.754;3.366;2023-02-10T18:13:44;9.90;99.90